createdAt,value
2022-10-29T00:01:09.676Z,16.22
2022-10-29T00:03:38.091Z,16.21
2022-10-29T00:06:08.868Z,16.20
2022-10-29T00:08:39.186Z,16.17
2022-10-29T00:11:10.762Z,16.17
2022-10-29T00:13:39.155Z,16.16
2022-10-29T00:16:09.362Z,16.13
2022-10-29T00:18:37.846Z,16.13
2022-10-29T00:21:08.127Z,16.12
2022-10-29T00:23:36.568Z,16.12
2022-10-29T00:26:05.372Z,16.11
2022-10-29T00:28:35.394Z,16.11
2022-10-29T00:31:05.322Z,16.10
2022-10-29T00:33:34.175Z,16.10
2022-10-29T00:36:05.257Z,16.12
2022-10-29T00:38:34.813Z,16.11
2022-10-29T00:41:04.397Z,16.12
2022-10-29T00:43:37.703Z,16.13
2022-10-29T00:46:09.581Z,16.13
2022-10-29T00:48:43.403Z,16.13
2022-10-29T00:51:14.168Z,16.14
2022-10-29T00:53:47.954Z,16.14
2022-10-29T00:56:17.289Z,16.14
2022-10-29T00:58:47.747Z,16.14
2022-10-29T01:01:16.909Z,16.14
2022-10-29T01:03:45.430Z,16.15
2022-10-29T01:06:14.405Z,16.15
2022-10-29T01:08:42.701Z,16.14
2022-10-29T01:11:21.704Z,16.13
2022-10-29T01:14:03.835Z,16.11
2022-10-29T01:16:44.461Z,16.11
2022-10-29T01:19:20.110Z,16.10
2022-10-29T01:21:52.491Z,16.08
2022-10-29T01:25:02.775Z,16.07
2022-10-29T01:27:50.593Z,16.04
2022-10-29T01:30:36.965Z,16.02
2022-10-29T01:33:15.253Z,16.00
2022-10-29T01:35:51.741Z,16.00
2022-10-29T01:38:33.150Z,15.97
2022-10-29T01:41:08.771Z,15.95
2022-10-29T01:43:43.809Z,15.93
2022-10-29T01:46:17.629Z,15.90
2022-10-29T01:48:50.007Z,15.87
2022-10-29T01:51:23.151Z,15.85
2022-10-29T01:53:52.897Z,15.83
2022-10-29T01:56:21.263Z,15.81
2022-10-29T01:58:54.531Z,15.79
2022-10-29T02:01:37.975Z,15.76
2022-10-29T02:04:20.665Z,15.74
2022-10-29T02:06:59.125Z,15.71
2022-10-29T02:09:34.778Z,15.70
2022-10-29T02:12:11.773Z,15.68
2022-10-29T02:14:46.612Z,15.66
2022-10-29T02:17:14.949Z,15.63
2022-10-29T02:19:44.941Z,15.62
2022-10-29T02:22:13.272Z,15.62
2022-10-29T02:24:41.596Z,15.60
2022-10-29T02:27:09.972Z,15.58
2022-10-29T02:29:39.428Z,15.57
2022-10-29T02:32:07.765Z,15.56
2022-10-29T02:34:36.136Z,15.53
2022-10-29T02:37:05.843Z,15.51
2022-10-29T02:39:34.228Z,15.48
2022-10-29T02:42:02.562Z,15.46
2022-10-29T02:44:30.992Z,15.44
2022-10-29T02:46:59.359Z,15.40
2022-10-29T02:49:27.828Z,15.38
2022-10-29T02:51:56.157Z,15.35
2022-10-29T02:54:25.876Z,15.32
2022-10-29T02:56:54.217Z,15.30
2022-10-29T02:59:22.501Z,15.25
2022-10-29T03:01:50.984Z,15.24
2022-10-29T03:04:19.472Z,15.21
2022-10-29T03:06:47.793Z,15.18
2022-10-29T03:09:16.106Z,15.15
2022-10-29T03:11:45.789Z,15.13
2022-10-29T03:14:14.155Z,15.10
2022-10-29T03:16:42.467Z,15.05
2022-10-29T03:19:10.806Z,15.04
2022-10-29T03:21:39.129Z,15.02
2022-10-29T03:24:08.007Z,15.02
2022-10-29T03:26:36.341Z,15.00
2022-10-29T03:29:06.046Z,14.98
2022-10-29T03:31:34.366Z,14.97
2022-10-29T03:34:02.895Z,14.97
2022-10-29T03:36:31.229Z,14.95
2022-10-29T03:38:59.535Z,14.94
2022-10-29T03:41:27.928Z,14.93
2022-10-29T03:46:30.983Z,14.92
2022-10-29T03:48:59.416Z,14.91
2022-10-29T03:51:27.784Z,14.92
2022-10-29T03:53:56.164Z,14.90
2022-10-29T03:56:24.495Z,14.90
2022-10-29T03:58:52.780Z,14.91
2022-10-29T04:01:21.211Z,14.90
2022-10-29T04:03:51.082Z,14.89
2022-10-29T04:06:19.362Z,14.88
2022-10-29T04:08:47.799Z,14.88
2022-10-29T04:11:16.212Z,14.89
2022-10-29T04:13:44.540Z,14.88
2022-10-29T04:16:12.861Z,14.86
2022-10-29T04:18:41.182Z,14.87
2022-10-29T04:29:35.898Z,14.81
2022-10-29T04:32:04.406Z,14.81
2022-10-29T04:34:32.715Z,14.80
2022-10-29T04:37:02.420Z,14.80
2022-10-29T04:39:30.714Z,14.79
2022-10-29T04:41:58.965Z,14.79
2022-10-29T04:44:27.337Z,14.80
2022-10-29T04:46:55.620Z,14.79
2022-10-29T04:49:24.126Z,14.81
2022-10-29T04:51:52.469Z,14.81
2022-10-29T04:54:22.141Z,14.82
2022-10-29T04:56:50.424Z,14.83
2022-10-29T04:59:18.700Z,14.84
2022-10-29T05:01:47.044Z,14.86
2022-10-29T05:04:15.345Z,14.86
2022-10-29T05:06:43.685Z,14.89
2022-10-29T05:09:11.985Z,14.90
2022-10-29T05:11:41.723Z,14.91
2022-10-29T05:14:10.096Z,14.91
2022-10-29T05:16:38.447Z,14.92
2022-10-29T05:19:06.931Z,14.95
2022-10-29T05:21:35.408Z,14.96
2022-10-29T05:24:03.713Z,14.96
2022-10-29T05:26:32.369Z,14.97
2022-10-29T05:29:02.281Z,14.97
2022-10-29T05:31:30.611Z,14.98
2022-10-29T05:33:58.932Z,14.97
2022-10-29T05:36:27.276Z,14.97
2022-10-29T05:38:55.659Z,14.98
2022-10-29T05:41:23.976Z,14.98
2022-10-29T05:43:52.351Z,14.99
2022-10-29T05:46:22.052Z,14.99
2022-10-29T05:48:50.333Z,15.01
2022-10-29T05:51:18.650Z,15.01
2022-10-29T05:53:48.383Z,15.01
2022-10-29T05:56:17.006Z,15.02
2022-10-29T05:58:45.324Z,15.02
2022-10-29T06:01:13.688Z,15.02
2022-10-29T06:03:43.486Z,15.02
2022-10-29T06:06:11.918Z,15.03
2022-10-29T06:08:40.312Z,15.02
2022-10-29T06:11:08.636Z,15.03
2022-10-29T06:13:36.984Z,15.03
2022-10-29T06:16:05.726Z,15.03
2022-10-29T06:18:34.001Z,15.04
2022-10-29T06:21:03.712Z,15.04
2022-10-29T06:23:32.013Z,15.05
2022-10-29T06:26:01.641Z,15.07
2022-10-29T06:28:33.742Z,15.07
2022-10-29T06:31:03.714Z,15.09
2022-10-29T06:33:32.060Z,15.10
2022-10-29T06:36:00.649Z,15.12
2022-10-29T06:38:30.436Z,15.12
2022-10-29T06:40:58.744Z,15.14
2022-10-29T06:43:27.133Z,15.15
2022-10-29T06:45:55.573Z,15.16
2022-10-29T06:48:24.245Z,15.18
2022-10-29T06:50:52.714Z,15.21
2022-10-29T06:53:21.607Z,15.22
2022-10-29T06:55:51.287Z,15.25
2022-10-29T06:58:21.039Z,15.27
2022-10-29T07:00:49.628Z,15.30
2022-10-29T07:03:19.766Z,15.32
2022-10-29T07:05:48.606Z,15.36
2022-10-29T07:08:16.985Z,15.40
2022-10-29T07:10:51.235Z,15.43
2022-10-29T07:13:21.106Z,15.48
2022-10-29T07:15:49.671Z,15.50
2022-10-29T07:18:18.058Z,15.56
2022-10-29T07:20:46.760Z,15.59
2022-10-29T07:23:15.403Z,15.64
2022-10-29T07:25:43.820Z,15.68
2022-10-29T07:28:14.207Z,15.74
2022-10-29T07:30:44.652Z,15.79
2022-10-29T07:33:13.242Z,15.83
2022-10-29T07:35:41.934Z,15.88
2022-10-29T07:38:12.520Z,15.93
2022-10-29T07:40:47.362Z,15.99
2022-10-29T07:43:15.903Z,16.03
2022-10-29T07:45:46.952Z,16.10
2022-10-29T07:48:15.282Z,16.16
2022-10-29T07:50:43.932Z,16.24
2022-10-29T07:53:12.398Z,16.30
2022-10-29T07:55:40.705Z,16.38
2022-10-29T07:58:12.393Z,16.45
2022-10-29T08:00:42.223Z,16.52
2022-10-29T08:03:13.756Z,16.58
2022-10-29T08:05:43.068Z,16.65
2022-10-29T08:08:11.701Z,16.73
2022-10-29T08:10:40.297Z,16.78
2022-10-29T08:13:08.857Z,16.84
2022-10-29T08:15:37.232Z,16.88
2022-10-29T08:18:15.782Z,16.92
2022-10-29T08:20:44.189Z,16.96
2022-10-29T08:23:12.921Z,16.98
2022-10-29T08:25:42.806Z,17.02
2022-10-29T08:28:12.549Z,17.07
2022-10-29T08:30:41.583Z,17.12
2022-10-29T08:33:10.700Z,17.17
2022-10-29T08:35:40.325Z,17.21
2022-10-29T08:38:08.894Z,17.26
2022-10-29T08:40:48.219Z,17.31
2022-10-29T08:43:46.955Z,17.36
2022-10-29T08:46:21.082Z,17.41
2022-10-29T08:48:53.778Z,17.46
2022-10-29T08:51:26.713Z,17.50
2022-10-29T08:56:50.373Z,17.60
2022-10-29T08:59:21.487Z,17.65
2022-10-29T09:01:50.423Z,17.69
2022-10-29T09:04:24.497Z,17.76
2022-10-29T09:07:16.822Z,17.82
2022-10-29T09:09:50.247Z,17.89
2022-10-29T09:12:38.795Z,17.98
2022-10-29T09:15:42.315Z,18.08
2022-10-29T09:18:23.758Z,18.16
2022-10-29T09:20:56.895Z,18.23
2022-10-29T09:23:36.455Z,18.29
2022-10-29T09:26:07.843Z,18.37
2022-10-29T09:28:51.498Z,18.44
2022-10-29T09:31:30.787Z,18.51
2022-10-29T09:34:05.469Z,18.56
2022-10-29T09:36:34.879Z,18.63
2022-10-29T09:39:11.482Z,18.69
2022-10-29T09:41:41.089Z,18.78
2022-10-29T09:44:20.622Z,18.84
2022-10-29T09:47:04.399Z,18.90
2022-10-29T09:49:48.003Z,18.96
2022-10-29T09:52:19.105Z,19.00
2022-10-29T09:54:51.084Z,19.05
2022-10-29T09:57:22.867Z,19.09
2022-10-29T09:59:54.825Z,19.13
2022-10-29T10:02:33.687Z,19.17
2022-10-29T10:05:06.619Z,19.22
2022-10-29T10:07:34.987Z,19.25
2022-10-29T10:10:06.945Z,19.27
2022-10-29T10:12:46.774Z,19.30
2022-10-29T10:15:24.068Z,19.32
2022-10-29T10:18:01.670Z,19.35
2022-10-29T10:20:39.345Z,19.36
2022-10-29T10:23:40.449Z,19.37
2022-10-29T10:26:36.462Z,19.40
2022-10-29T10:29:13.692Z,19.42
2022-10-29T10:31:43.761Z,19.45
2022-10-29T10:34:18.070Z,19.50
2022-10-29T10:36:51.299Z,19.55
2022-10-29T10:39:31.235Z,19.59
2022-10-29T10:42:04.467Z,19.65
2022-10-29T10:44:33.563Z,19.67
2022-10-29T10:47:08.311Z,19.69
2022-10-29T10:49:38.354Z,19.72
2022-10-29T10:52:15.417Z,19.74
2022-10-29T10:54:47.797Z,19.76
2022-10-29T10:57:24.015Z,19.80
2022-10-29T10:59:59.846Z,19.86
2022-10-29T11:02:36.330Z,19.92
2022-10-29T11:05:13.220Z,19.98
2022-10-29T11:07:47.044Z,20.04
2022-10-29T11:10:18.984Z,20.11
2022-10-29T11:12:54.268Z,20.18
2022-10-29T11:15:31.820Z,20.25
2022-10-29T11:18:07.492Z,20.33
2022-10-29T11:20:37.391Z,20.39
2022-10-29T11:23:24.330Z,20.47
2022-10-29T11:26:01.073Z,20.54
2022-10-29T11:28:39.583Z,20.61
2022-10-29T11:31:15.874Z,20.68
2022-10-29T11:33:51.884Z,20.74
2022-10-29T11:36:22.908Z,20.79
2022-10-29T11:38:57.773Z,20.84
2022-10-29T11:41:33.197Z,20.86
2022-10-29T11:44:02.995Z,20.89
2022-10-29T11:46:38.960Z,20.93
2022-10-29T11:49:25.843Z,20.95
2022-10-29T11:52:03.402Z,21.01
2022-10-29T11:54:44.709Z,21.05
2022-10-29T11:57:17.809Z,21.09
2022-10-29T12:00:04.497Z,21.14
2022-10-29T12:02:57.830Z,21.19
2022-10-29T12:05:36.825Z,21.25
2022-10-29T12:08:21.987Z,21.28
2022-10-29T12:10:55.576Z,21.32
2022-10-29T12:13:40.845Z,21.37
2022-10-29T12:16:24.774Z,21.42
2022-10-29T12:18:59.990Z,21.44
2022-10-29T12:21:39.343Z,21.46
2022-10-29T12:24:22.818Z,21.45
2022-10-29T12:26:57.071Z,21.45
2022-10-29T12:29:33.772Z,21.45
2022-10-29T12:32:09.626Z,21.44
2022-10-29T12:34:42.959Z,21.43
2022-10-29T12:37:18.465Z,21.43
2022-10-29T12:39:51.373Z,21.42
2022-10-29T12:42:23.936Z,21.41
2022-10-29T12:45:03.385Z,21.40
2022-10-29T12:47:39.805Z,21.39
2022-10-29T12:50:24.573Z,21.40
2022-10-29T12:53:01.074Z,21.39
2022-10-29T12:55:30.427Z,21.41
2022-10-29T12:57:59.001Z,21.42
2022-10-29T13:00:48.448Z,21.44
2022-10-29T13:04:05.699Z,21.49
2022-10-29T13:06:57.378Z,21.58
2022-10-29T13:09:27.556Z,21.69
2022-10-29T13:11:57.733Z,21.80
2022-10-29T13:14:36.652Z,21.89
2022-10-29T13:17:08.092Z,21.94
2022-10-29T13:19:46.960Z,22.00
2022-10-29T13:22:57.308Z,22.02
2022-10-29T13:25:50.385Z,22.02
2022-10-29T13:28:49.344Z,22.00
2022-10-29T13:31:49.957Z,22.00
2022-10-29T13:34:55.557Z,21.99
2022-10-29T13:37:52.023Z,21.98
2022-10-29T13:40:41.453Z,21.99
2022-10-29T13:43:18.008Z,22.00
2022-10-29T13:45:51.268Z,22.02
2022-10-29T13:48:27.365Z,22.03
2022-10-29T13:50:58.567Z,22.05
2022-10-29T13:53:35.388Z,22.11
2022-10-29T13:56:10.238Z,22.18
2022-10-29T13:58:41.881Z,22.25
2022-10-29T14:01:16.424Z,22.30
2022-10-29T14:03:58.673Z,22.37
2022-10-29T14:06:32.386Z,22.45
2022-10-29T14:09:12.342Z,22.54
2022-10-29T14:11:46.191Z,22.64
2022-10-29T14:14:25.732Z,22.71
2022-10-29T14:17:13.102Z,22.75
2022-10-29T14:19:46.578Z,22.76
2022-10-29T14:22:31.595Z,22.79
2022-10-29T14:25:00.953Z,22.81
2022-10-29T14:27:31.160Z,22.82
2022-10-29T14:30:20.491Z,22.83
2022-10-29T14:32:48.942Z,22.84
2022-10-29T14:35:17.771Z,22.83
2022-10-29T14:37:49.081Z,22.85
2022-10-29T14:40:23.326Z,22.85
2022-10-29T14:42:55.269Z,22.83
2022-10-29T14:45:28.239Z,22.82
2022-10-29T14:47:58.608Z,22.80
2022-10-29T14:50:29.158Z,22.77
2022-10-29T14:53:01.286Z,22.72
2022-10-29T14:55:34.662Z,22.67
2022-10-29T14:58:08.976Z,22.63
2022-10-29T15:00:37.705Z,22.55
2022-10-29T15:03:07.816Z,22.53
2022-10-29T15:05:38.780Z,22.47
2022-10-29T15:08:15.371Z,22.43
2022-10-29T15:10:48.231Z,22.35
2022-10-29T15:13:25.446Z,22.27
2022-10-29T15:15:56.512Z,22.20
2022-10-29T15:18:26.615Z,22.12
2022-10-29T15:20:56.540Z,22.05
2022-10-29T15:23:27.878Z,21.97
2022-10-29T15:26:01.547Z,21.90
2022-10-29T15:28:37.700Z,21.83
2022-10-29T15:31:06.736Z,21.76
2022-10-29T15:33:38.159Z,21.69
2022-10-29T15:36:07.196Z,21.62
2022-10-29T15:39:10.277Z,21.54
2022-10-29T15:41:44.950Z,21.48
2022-10-29T15:44:34.663Z,21.42
2022-10-29T15:47:04.457Z,21.36
2022-10-29T15:49:33.112Z,21.31
2022-10-29T15:52:01.961Z,21.25
2022-10-29T15:54:30.689Z,21.20
2022-10-29T15:56:59.460Z,21.15
2022-10-29T15:59:27.799Z,21.10
2022-10-29T16:01:57.567Z,21.05
2022-10-29T16:04:25.959Z,21.01
2022-10-29T16:06:54.338Z,20.94
2022-10-29T16:09:22.764Z,20.88
2022-10-29T16:11:52.006Z,20.84
2022-10-29T16:14:20.407Z,20.77
2022-10-29T16:16:48.761Z,20.72
2022-10-29T16:19:18.417Z,20.67
2022-10-29T16:21:46.762Z,20.61
2022-10-29T16:24:15.878Z,20.57
2022-10-29T16:26:44.302Z,20.52
2022-10-29T16:29:16.000Z,20.48
2022-10-29T16:31:44.886Z,20.44
2022-10-29T16:34:15.119Z,20.41
2022-10-29T16:36:45.994Z,20.37
2022-10-29T16:39:14.296Z,20.32
2022-10-29T16:41:42.691Z,20.29
2022-10-29T16:44:10.969Z,20.25
2022-10-29T16:46:39.281Z,20.21
2022-10-29T16:49:07.597Z,20.16
2022-10-29T16:51:35.966Z,20.14
2022-10-29T16:54:06.024Z,20.10
2022-10-29T16:56:34.321Z,20.08
2022-10-29T16:59:02.665Z,20.06
2022-10-29T17:01:31.000Z,20.03
2022-10-29T17:03:59.518Z,20.00
2022-10-29T17:06:27.862Z,19.97
2022-10-29T17:08:56.145Z,19.95
2022-10-29T17:11:25.875Z,19.92
2022-10-29T17:13:54.769Z,19.89
2022-10-29T17:16:23.158Z,19.87
2022-10-29T17:18:51.982Z,19.85
2022-10-29T17:21:20.425Z,19.81
2022-10-29T17:23:48.812Z,19.78
2022-10-29T17:26:17.293Z,19.75
2022-10-29T17:28:47.009Z,19.75
2022-10-29T17:31:15.322Z,19.71
2022-10-29T17:33:43.615Z,19.70
2022-10-29T17:36:13.684Z,19.65
2022-10-29T17:38:42.345Z,19.63
2022-10-29T17:41:10.995Z,19.58
2022-10-29T17:43:39.290Z,19.57
2022-10-29T17:46:09.033Z,19.54
2022-10-29T17:48:38.811Z,19.51
2022-10-29T17:51:08.535Z,19.49
2022-10-29T17:53:38.644Z,19.48
2022-10-29T17:56:07.854Z,19.45
2022-10-29T17:58:36.153Z,19.43
2022-10-29T18:01:06.107Z,19.42
2022-10-29T18:03:35.961Z,19.40
2022-10-29T18:06:06.450Z,19.37
2022-10-29T18:08:36.932Z,19.36
2022-10-29T18:11:06.347Z,19.34
2022-10-29T18:13:39.289Z,19.31
2022-10-29T18:16:08.839Z,19.29
2022-10-29T18:18:54.166Z,19.28
2022-10-29T18:21:28.962Z,19.26
2022-10-29T18:23:57.298Z,19.24
2022-10-29T18:26:27.650Z,19.22
2022-10-29T18:28:56.840Z,19.20
2022-10-29T18:31:27.336Z,19.19
2022-10-29T18:33:57.862Z,19.16
2022-10-29T18:36:26.415Z,19.14
2022-10-29T18:38:56.669Z,19.12
2022-10-29T18:41:25.364Z,19.10
2022-10-29T18:43:54.454Z,19.07
2022-10-29T18:46:23.124Z,19.06
2022-10-29T18:48:52.136Z,19.04
2022-10-29T18:51:24.258Z,19.03
2022-10-29T18:53:53.662Z,19.00
2022-10-29T18:56:23.688Z,18.98
2022-10-29T18:58:52.090Z,18.96
2022-10-29T19:01:22.555Z,18.95
2022-10-29T19:03:52.592Z,18.91
2022-10-29T19:06:23.408Z,18.91
2022-10-29T19:08:52.264Z,18.89
2022-10-29T19:11:22.886Z,18.88
2022-10-29T19:13:52.294Z,18.87
2022-10-29T19:16:21.046Z,18.86
2022-10-29T19:18:54.620Z,18.86
2022-10-29T19:21:25.374Z,18.85
2022-10-29T19:23:57.096Z,18.84
2022-10-29T19:26:26.946Z,18.85
2022-10-29T19:28:55.640Z,18.84
2022-10-29T19:31:26.443Z,18.84
2022-10-29T19:33:56.730Z,18.84
2022-10-29T19:36:27.353Z,18.84
2022-10-29T19:38:56.370Z,18.84
2022-10-29T19:41:25.438Z,18.84
2022-10-29T19:43:53.867Z,18.84
2022-10-29T19:46:24.057Z,18.85
2022-10-29T19:48:53.934Z,18.84
2022-10-29T19:51:22.902Z,18.84
2022-10-29T19:53:52.945Z,18.84
2022-10-29T19:56:22.451Z,18.84
2022-10-29T19:58:50.728Z,18.85
2022-10-29T20:01:19.669Z,18.85
2022-10-29T20:03:48.669Z,18.85
2022-10-29T20:06:17.739Z,18.86
2022-10-29T20:08:46.056Z,18.86
2022-10-29T20:11:15.672Z,18.85
2022-10-29T20:13:43.950Z,18.85
2022-10-29T20:16:16.228Z,18.86
2022-10-29T20:18:45.004Z,18.87
2022-10-29T20:21:14.229Z,18.85
2022-10-29T20:23:42.774Z,18.85
2022-10-29T20:26:11.365Z,18.86
2022-10-29T20:28:41.115Z,18.86
2022-10-29T20:31:14.903Z,18.83
2022-10-29T20:33:43.686Z,18.82
2022-10-29T20:36:12.100Z,18.81
2022-10-29T20:38:40.455Z,18.81
2022-10-29T20:41:09.030Z,18.80
2022-10-29T20:43:37.364Z,18.79
2022-10-29T20:46:07.557Z,18.78
2022-10-29T20:48:36.243Z,18.77
2022-10-29T20:51:04.902Z,18.77
2022-10-29T20:53:33.251Z,18.75
2022-10-29T20:56:01.618Z,18.75
2022-10-29T20:58:29.953Z,18.75
2022-10-29T21:01:06.942Z,18.75
2022-10-29T21:03:35.566Z,18.72
2022-10-29T21:06:04.465Z,18.72
2022-10-29T21:08:33.068Z,18.72
2022-10-29T21:11:02.372Z,18.72
2022-10-29T21:13:31.124Z,18.71
2022-10-29T21:16:07.772Z,18.70
2022-10-29T21:18:39.843Z,18.69
2022-10-29T21:21:09.343Z,18.68
2022-10-29T21:23:38.486Z,18.66
2022-10-29T21:26:07.894Z,18.65
2022-10-29T21:28:36.564Z,18.64
2022-10-29T21:31:05.329Z,18.61
2022-10-29T21:33:35.199Z,18.60
2022-10-29T21:36:03.755Z,18.60
2022-10-29T21:38:33.319Z,18.58
2022-10-29T21:41:02.199Z,18.57
2022-10-29T21:43:30.768Z,18.54
2022-10-29T21:45:59.333Z,18.54
2022-10-29T21:48:28.264Z,18.52
2022-10-29T21:51:02.761Z,18.51
2022-10-29T21:53:31.245Z,18.50
2022-10-29T21:56:00.588Z,18.49
2022-10-29T21:58:30.398Z,18.47
2022-10-29T22:01:03.923Z,18.47
2022-10-29T22:03:32.891Z,18.47
2022-10-29T22:06:07.555Z,18.47
2022-10-29T22:08:36.220Z,18.46
2022-10-29T22:11:05.149Z,18.45
2022-10-29T22:13:35.130Z,18.44
2022-10-29T22:16:04.790Z,18.44
2022-10-29T22:18:33.723Z,18.42
2022-10-29T22:21:09.031Z,18.43
2022-10-29T22:23:38.163Z,18.43
2022-10-29T22:26:06.659Z,18.43
2022-10-29T22:28:34.966Z,18.44
2022-10-29T22:31:04.829Z,18.44
2022-10-29T22:33:34.496Z,18.44
2022-10-29T22:36:10.050Z,18.44
2022-10-29T22:38:38.731Z,18.44
2022-10-29T22:41:08.600Z,18.44
2022-10-29T22:43:37.033Z,18.46
2022-10-29T22:46:06.912Z,18.45
2022-10-29T22:48:35.364Z,18.46
2022-10-29T22:51:05.747Z,18.46
2022-10-29T22:53:35.485Z,18.45
2022-10-29T22:56:04.708Z,18.46
2022-10-29T22:58:33.106Z,18.46
2022-10-29T23:01:03.152Z,18.46
2022-10-29T23:03:31.585Z,18.45
2022-10-29T23:06:01.213Z,18.46
2022-10-29T23:08:30.234Z,18.46
2022-10-29T23:11:00.242Z,18.46
2022-10-29T23:13:28.525Z,18.46
2022-10-29T23:15:56.829Z,18.47
2022-10-29T23:18:25.171Z,18.48
2022-10-29T23:20:59.222Z,18.48
2022-10-29T23:23:28.273Z,18.47
2022-10-29T23:26:00.826Z,18.49
2022-10-29T23:28:31.880Z,18.49
2022-10-29T23:31:02.093Z,18.49
2022-10-29T23:33:31.449Z,18.49
2022-10-29T23:36:02.744Z,18.49
2022-10-29T23:38:31.165Z,18.50
2022-10-29T23:40:59.580Z,18.49
2022-10-29T23:43:28.435Z,18.49
2022-10-29T23:45:58.141Z,18.50
2022-10-29T23:48:26.893Z,18.48
2022-10-29T23:50:56.356Z,18.48
2022-10-29T23:53:24.889Z,18.48
2022-10-29T23:55:53.261Z,18.46
2022-10-29T23:58:21.636Z,18.45
